KPGA/PGA METAR and TAF weather

Enter ICAO airport designator
Station Type Date Time Source
KPGA METAR 2019/12/08 10:53 UTC NOAA

KPGA 081053Z AUTO 18003KT 10SM SCT046 SCT055 BKN070 07/05 A3001 RMK AO2 RAB19E36 SLP144 P0000 T00670050 TSNO


Station Type Date Time Source
KPGA Decoded METAR 2019/12/08 10:53 UTC NOAA

PAGE MUNICIPAL AIRPORT, AZ, United States (KPGA) 36-56N 111-27W 1307M
Dec 08, 2019 - 05:53 AM EST / 2019.12.08 1053 UTC
Wind: from the S (180 degrees) at 3 MPH (3 KT):0
Visibility: 10 mile(s):0
Sky conditions: mostly cloudy
Precipitation last hour: A trace
Temperature: 44.1 F (6.7 C)
Dew Point: 41.0 F (5.0 C)
Relative Humidity: 88%
Pressure (altimeter): 30.01 in. Hg (1016 hPa)
ob: KPGA 081053Z AUTO 18003KT 10SM SCT046 SCT055 BKN070 07/05 A3001 RMK AO2 RAB19E36 SLP144 P0000 T00670050 TSNO
cycle: 11

Station Type Date Time Source
KPGA TAF 2019/12/08 12:30 UTC NOAA

TAF KPGA 081128Z 0812/0912 VRB05KT P6SM VCSH SCT030 BKN050 OVC100
TEMPO 0812/0815 4SM -SHRA BR BKN030 OVC050
FM082100 28010KT P6SM SCT035 BKN060
TEMPO 0823/0903 5SM -SHRA BKN035

Example: see airport list